AMM weather

Queen Alia International Airport
Amman, Amman Governorate, Jordan

Public forecast

Using degrees Celsius for public forecast. Weather courtesy of forecast.io.

Current aviation weather report (METAR) for Queen Alia International Airport

Retrieved 2019/10/16 08:00 UTC (53 minutes ago):

OJAI 160800Z 10014KT 4000 HZ SCT035 SCT040 25/12 Q1019 NOSIG

Aviation forecast (TAF) for Queen Alia International Airport

Retrieved 2019/10/16 06:00 UTC (3 hours ago):

TAF OJAI 160436Z 1606/1712 05012KT 3000 TSRA FEW030CB SCT035 BKN070 BECMG 1608/1610 14016KT 5000 RA DU SCT035 BKN060